sensor_id;sensor_type;location;lat;lon;timestamp;temperature;humidity
28947;DHT22;16052;50.930;5.326;2023-04-01T00:00:54;10.00;99.90
28947;DHT22;16052;50.930;5.326;2023-04-01T00:03:21;10.00;99.90
28947;DHT22;16052;50.930;5.326;2023-04-01T00:05:48;10.00;99.90
28947;DHT22;16052;50.930;5.326;2023-04-01T00:08:14;10.00;99.90
28947;DHT22;16052;50.930;5.326;2023-04-01T00:10:40;9.90;99.90
28947;DHT22;16052;50.930;5.326;2023-04-01T00:13:06;10.00;99.90
28947;DHT22;16052;50.930;5.326;2023-04-01T00:15:33;10.00;99.90
28947;DHT22;16052;50.930;5.326;2023-04-01T00:17:59;10.00;99.90
28947;DHT22;16052;50.930;5.326;2023-04-01T00:20:25;10.00;99.90
28947;DHT22;16052;50.930;5.326;2023-04-01T00:22:51;10.00;99.90
28947;DHT22;16052;50.930;5.326;2023-04-01T00:25:16;10.00;99.90
28947;DHT22;16052;50.930;5.326;2023-04-01T00:27:42;10.00;99.90
28947;DHT22;16052;50.930;5.326;2023-04-01T00:30:08;10.00;99.90
28947;DHT22;16052;50.930;5.326;2023-04-01T00:32:34;10.00;99.90
28947;DHT22;16052;50.930;5.326;2023-04-01T00:35:01;10.10;99.90
28947;DHT22;16052;50.930;5.326;2023-04-01T00:37:27;10.10;99.90
28947;DHT22;16052;50.930;5.326;2023-04-01T00:39:53;10.00;99.90
28947;DHT22;16052;50.930;5.326;2023-04-01T00:42:19;10.10;99.90
28947;DHT22;16052;50.930;5.326;2023-04-01T00:44:51;10.20;99.90
28947;DHT22;16052;50.930;5.326;2023-04-01T00:47:17;10.10;99.90
28947;DHT22;16052;50.930;5.326;2023-04-01T00:49:49;10.10;99.90
28947;DHT22;16052;50.930;5.326;2023-04-01T00:52:19;10.10;99.90
28947;DHT22;16052;50.930;5.326;2023-04-01T00:54:46;10.10;99.90
28947;DHT22;16052;50.930;5.326;2023-04-01T00:57:34;10.10;99.90
28947;DHT22;16052;50.930;5.326;2023-04-01T01:00:04;10.10;99.90
28947;DHT22;16052;50.930;5.326;2023-04-01T01:02:33;10.10;99.90
28947;DHT22;16052;50.930;5.326;2023-04-01T01:05:00;10.10;99.90
28947;DHT22;16052;50.930;5.326;2023-04-01T01:07:41;10.10;99.90
28947;DHT22;16052;50.930;5.326;2023-04-01T01:10:30;10.10;99.90
28947;DHT22;16052;50.930;5.326;2023-04-01T01:15:37;10.10;99.90
28947;DHT22;16052;50.930;5.326;2023-04-01T01:18:25;10.20;99.90
28947;DHT22;16052;50.930;5.326;2023-04-01T01:29:42;10.10;99.90
28947;DHT22;16052;50.930;5.326;2023-04-01T01:37:17;10.00;99.90
28947;DHT22;16052;50.930;5.326;2023-04-01T01:39:51;10.00;99.90
28947;DHT22;16052;50.930;5.326;2023-04-01T01:42:18;10.00;99.90
28947;DHT22;16052;50.930;5.326;2023-04-01T01:44:47;10.10;99.90
28947;DHT22;16052;50.930;5.326;2023-04-01T01:47:14;10.00;99.90
28947;DHT22;16052;50.930;5.326;2023-04-01T01:49:42;10.00;99.90
28947;DHT22;16052;50.930;5.326;2023-04-01T01:52:08;10.00;99.90
28947;DHT22;16052;50.930;5.326;2023-04-01T01:54:34;10.00;99.90
28947;DHT22;16052;50.930;5.326;2023-04-01T01:57:06;10.00;99.90
28947;DHT22;16052;50.930;5.326;2023-04-01T01:59:35;10.00;99.90
28947;DHT22;16052;50.930;5.326;2023-04-01T02:02:02;10.00;99.90
28947;DHT22;16052;50.930;5.326;2023-04-01T02:04:39;10.00;99.90
28947;DHT22;16052;50.930;5.326;2023-04-01T02:07:23;10.00;99.90
28947;DHT22;16052;50.930;5.326;2023-04-01T02:09:50;9.90;99.90
28947;DHT22;16052;50.930;5.326;2023-04-01T02:12:17;10.00;99.90
28947;DHT22;16052;50.930;5.326;2023-04-01T02:14:57;10.00;99.90
28947;DHT22;16052;50.930;5.326;2023-04-01T02:17:29;10.00;99.90
28947;DHT22;16052;50.930;5.326;2023-04-01T02:20:02;10.00;99.90
28947;DHT22;16052;50.930;5.326;2023-04-01T02:22:33;9.90;99.90
28947;DHT22;16052;50.930;5.326;2023-04-01T02:25:10;10.00;99.90
28947;DHT22;16052;50.930;5.326;2023-04-01T02:27:37;10.00;99.90
28947;DHT22;16052;50.930;5.326;2023-04-01T02:30:04;10.10;99.90
28947;DHT22;16052;50.930;5.326;2023-04-01T02:32:32;10.10;99.90
28947;DHT22;16052;50.930;5.326;2023-04-01T02:34:58;10.10;99.90
28947;DHT22;16052;50.930;5.326;2023-04-01T02:37:28;10.00;99.90
28947;DHT22;16052;50.930;5.326;2023-04-01T02:39:54;10.10;99.90
28947;DHT22;16052;50.930;5.326;2023-04-01T02:42:25;10.10;99.90
28947;DHT22;16052;50.930;5.326;2023-04-01T02:44:50;10.20;99.90
28947;DHT22;16052;50.930;5.326;2023-04-01T02:47:16;10.10;99.90
28947;DHT22;16052;50.930;5.326;2023-04-01T02:49:42;10.10;99.90
28947;DHT22;16052;50.930;5.326;2023-04-01T02:52:07;10.10;99.90
28947;DHT22;16052;50.930;5.326;2023-04-01T02:54:33;10.20;99.90
28947;DHT22;16052;50.930;5.326;2023-04-01T02:56:58;10.20;99.90
28947;DHT22;16052;50.930;5.326;2023-04-01T02:59:24;10.20;99.90
28947;DHT22;16052;50.930;5.326;2023-04-01T03:01:50;10.20;99.90
28947;DHT22;16052;50.930;5.326;2023-04-01T03:04:15;10.20;99.90
28947;DHT22;16052;50.930;5.326;2023-04-01T03:06:41;10.20;99.90
28947;DHT22;16052;50.930;5.326;2023-04-01T03:09:07;10.20;99.90
28947;DHT22;16052;50.930;5.326;2023-04-01T03:11:32;10.10;99.90
28947;DHT22;16052;50.930;5.326;2023-04-01T03:13:58;10.10;99.90
28947;DHT22;16052;50.930;5.326;2023-04-01T03:16:24;10.10;99.90
28947;DHT22;16052;50.930;5.326;2023-04-01T03:18:50;10.10;99.90
28947;DHT22;16052;50.930;5.326;2023-04-01T03:21:20;10.10;99.90
28947;DHT22;16052;50.930;5.326;2023-04-01T03:23:46;9.90;99.90
28947;DHT22;16052;50.930;5.326;2023-04-01T03:26:12;9.90;99.90
28947;DHT22;16052;50.930;5.326;2023-04-01T03:28:39;10.00;99.90
28947;DHT22;16052;50.930;5.326;2023-04-01T03:31:05;10.00;99.90
28947;DHT22;16052;50.930;5.326;2023-04-01T03:33:31;9.90;99.90
28947;DHT22;16052;50.930;5.326;2023-04-01T03:35:57;9.90;99.90
28947;DHT22;16052;50.930;5.326;2023-04-01T03:38:23;10.00;99.90
28947;DHT22;16052;50.930;5.326;2023-04-01T03:40:49;10.00;99.90
28947;DHT22;16052;50.930;5.326;2023-04-01T03:43:15;10.00;99.90
28947;DHT22;16052;50.930;5.326;2023-04-01T03:45:50;10.10;99.90
28947;DHT22;16052;50.930;5.326;2023-04-01T03:48:18;10.10;99.90
28947;DHT22;16052;50.930;5.326;2023-04-01T03:50:44;10.00;99.90
28947;DHT22;16052;50.930;5.326;2023-04-01T03:53:10;10.00;99.90
28947;DHT22;16052;50.930;5.326;2023-04-01T03:55:37;10.00;99.90
28947;DHT22;16052;50.930;5.326;2023-04-01T03:58:05;10.00;99.90
28947;DHT22;16052;50.930;5.326;2023-04-01T04:00:31;10.10;99.90
28947;DHT22;16052;50.930;5.326;2023-04-01T04:02:57;10.00;99.90
28947;DHT22;16052;50.930;5.326;2023-04-01T04:05:24;10.00;99.90
28947;DHT22;16052;50.930;5.326;2023-04-01T04:07:50;10.00;99.90
28947;DHT22;16052;50.930;5.326;2023-04-01T04:10:16;10.10;99.90
28947;DHT22;16052;50.930;5.326;2023-04-01T04:12:42;10.00;99.90
28947;DHT22;16052;50.930;5.326;2023-04-01T04:15:08;10.00;99.90
28947;DHT22;16052;50.930;5.326;2023-04-01T04:17:34;9.90;99.90
28947;DHT22;16052;50.930;5.326;2023-04-01T04:20:00;9.90;99.90
28947;DHT22;16052;50.930;5.326;2023-04-01T04:22:26;9.80;99.90
28947;DHT22;16052;50.930;5.326;2023-04-01T04:24:52;9.80;99.90
28947;DHT22;16052;50.930;5.326;2023-04-01T04:27:17;9.90;99.90
28947;DHT22;16052;50.930;5.326;2023-04-01T04:29:43;9.80;99.90
28947;DHT22;16052;50.930;5.326;2023-04-01T04:32:09;9.80;99.90
28947;DHT22;16052;50.930;5.326;2023-04-01T04:34:34;9.80;99.90
28947;DHT22;16052;50.930;5.326;2023-04-01T04:37:00;9.80;99.90
28947;DHT22;16052;50.930;5.326;2023-04-01T04:39:26;9.80;99.90
28947;DHT22;16052;50.930;5.326;2023-04-01T04:41:51;9.80;99.90
28947;DHT22;16052;50.930;5.326;2023-04-01T04:44:17;9.80;99.90
28947;DHT22;16052;50.930;5.326;2023-04-01T04:46:43;9.80;99.90
28947;DHT22;16052;50.930;5.326;2023-04-01T04:49:08;9.90;99.90
28947;DHT22;16052;50.930;5.326;2023-04-01T04:51:35;9.90;99.90
28947;DHT22;16052;50.930;5.326;2023-04-01T04:54:04;9.80;99.90
28947;DHT22;16052;50.930;5.326;2023-04-01T04:56:30;9.80;99.90
28947;DHT22;16052;50.930;5.326;2023-04-01T04:58:56;9.70;99.90
28947;DHT22;16052;50.930;5.326;2023-04-01T05:01:22;9.70;99.90
28947;DHT22;16052;50.930;5.326;2023-04-01T05:03:48;9.70;99.90
28947;DHT22;16052;50.930;5.326;2023-04-01T05:06:15;9.70;99.90
28947;DHT22;16052;50.930;5.326;2023-04-01T05:08:42;9.70;99.90
28947;DHT22;16052;50.930;5.326;2023-04-01T05:11:15;9.70;99.90
28947;DHT22;16052;50.930;5.326;2023-04-01T05:13:41;9.70;99.90
28947;DHT22;16052;50.930;5.326;2023-04-01T05:16:09;9.70;99.90
28947;DHT22;16052;50.930;5.326;2023-04-01T05:18:35;9.70;99.90
28947;DHT22;16052;50.930;5.326;2023-04-01T05:21:00;9.70;99.90
28947;DHT22;16052;50.930;5.326;2023-04-01T05:23:26;9.70;99.90
28947;DHT22;16052;50.930;5.326;2023-04-01T05:25:52;9.70;99.90
28947;DHT22;16052;50.930;5.326;2023-04-01T05:28:19;9.80;99.90
28947;DHT22;16052;50.930;5.326;2023-04-01T05:30:45;9.80;99.90
28947;DHT22;16052;50.930;5.326;2023-04-01T05:33:12;9.80;99.90
28947;DHT22;16052;50.930;5.326;2023-04-01T05:35:38;9.80;99.90
28947;DHT22;16052;50.930;5.326;2023-04-01T05:38:04;9.70;99.90
28947;DHT22;16052;50.930;5.326;2023-04-01T05:40:30;9.70;99.90
28947;DHT22;16052;50.930;5.326;2023-04-01T05:42:56;9.70;99.90
28947;DHT22;16052;50.930;5.326;2023-04-01T05:45:22;9.70;99.90
28947;DHT22;16052;50.930;5.326;2023-04-01T05:47:48;9.70;99.90
28947;DHT22;16052;50.930;5.326;2023-04-01T05:50:14;9.70;99.90
28947;DHT22;16052;50.930;5.326;2023-04-01T05:52:40;9.70;99.90
28947;DHT22;16052;50.930;5.326;2023-04-01T05:55:06;9.70;99.90
28947;DHT22;16052;50.930;5.326;2023-04-01T05:57:32;9.70;99.90
28947;DHT22;16052;50.930;5.326;2023-04-01T05:59:58;9.70;99.90
28947;DHT22;16052;50.930;5.326;2023-04-01T06:02:23;9.80;99.90
28947;DHT22;16052;50.930;5.326;2023-04-01T06:04:49;9.80;99.90
28947;DHT22;16052;50.930;5.326;2023-04-01T06:07:19;9.70;99.90
28947;DHT22;16052;50.930;5.326;2023-04-01T06:09:45;9.80;99.90
28947;DHT22;16052;50.930;5.326;2023-04-01T06:20:16;9.80;99.90
28947;DHT22;16052;50.930;5.326;2023-04-01T06:22:57;9.70;99.90
28947;DHT22;16052;50.930;5.326;2023-04-01T06:56:17;9.60;99.90
28947;DHT22;16052;50.930;5.326;2023-04-01T06:58:52;9.70;99.90
28947;DHT22;16052;50.930;5.326;2023-04-01T07:02:24;9.70;99.90
28947;DHT22;16052;50.930;5.326;2023-04-01T07:04:30;9.70;99.90
28947;DHT22;16052;50.930;5.326;2023-04-01T07:06:59;9.70;99.90
28947;DHT22;16052;50.930;5.326;2023-04-01T07:09:39;9.80;99.90
28947;DHT22;16052;50.930;5.326;2023-04-01T07:14:53;9.80;99.90
28947;DHT22;16052;50.930;5.326;2023-04-01T07:17:28;9.80;99.90
28947;DHT22;16052;50.930;5.326;2023-04-01T07:20:35;9.70;99.90
28947;DHT22;16052;50.930;5.326;2023-04-01T07:23:10;9.80;99.90
28947;DHT22;16052;50.930;5.326;2023-04-01T07:25:42;9.70;99.90
28947;DHT22;16052;50.930;5.326;2023-04-01T07:28:14;9.70;99.90
28947;DHT22;16052;50.930;5.326;2023-04-01T07:34:04;9.70;99.90
28947;DHT22;16052;50.930;5.326;2023-04-01T07:37:21;9.70;99.90
28947;DHT22;16052;50.930;5.326;2023-04-01T07:56:09;9.60;99.90
28947;DHT22;16052;50.930;5.326;2023-04-01T08:01:53;9.60;99.90
28947;DHT22;16052;50.930;5.326;2023-04-01T08:04:57;9.70;99.90
28947;DHT22;16052;50.930;5.326;2023-04-01T08:07:44;9.70;99.90
28947;DHT22;16052;50.930;5.326;2023-04-01T08:10:32;9.80;99.90
28947;DHT22;16052;50.930;5.326;2023-04-01T08:13:44;9.80;99.90
28947;DHT22;16052;50.930;5.326;2023-04-01T08:19:03;9.90;99.90
28947;DHT22;16052;50.930;5.326;2023-04-01T08:21:37;9.90;99.90
28947;DHT22;16052;50.930;5.326;2023-04-01T08:26:53;9.80;99.90
28947;DHT22;16052;50.930;5.326;2023-04-01T08:29:40;9.80;99.90
28947;DHT22;16052;50.930;5.326;2023-04-01T08:32:12;9.80;99.90
28947;DHT22;16052;50.930;5.326;2023-04-01T08:34:40;9.80;99.90
28947;DHT22;16052;50.930;5.326;2023-04-01T08:37:12;9.70;99.90
28947;DHT22;16052;50.930;5.326;2023-04-01T08:39:54;9.70;99.90
28947;DHT22;16052;50.930;5.326;2023-04-01T08:45:44;9.70;99.90
28947;DHT22;16052;50.930;5.326;2023-04-01T08:48:19;9.80;99.90
28947;DHT22;16052;50.930;5.326;2023-04-01T09:24:28;9.90;99.90
28947;DHT22;16052;50.930;5.326;2023-04-01T09:38:21;10.00;99.90
28947;DHT22;16052;50.930;5.326;2023-04-01T09:43:43;10.10;99.90
28947;DHT22;16052;50.930;5.326;2023-04-01T09:49:16;10.10;99.90
28947;DHT22;16052;50.930;5.326;2023-04-01T10:00:20;10.30;99.90
28947;DHT22;16052;50.930;5.326;2023-04-01T10:34:03;10.40;99.90
28947;DHT22;16052;50.930;5.326;2023-04-01T10:36:50;10.30;99.90
28947;DHT22;16052;50.930;5.326;2023-04-01T10:56:42;10.30;99.90
28947;DHT22;16052;50.930;5.326;2023-04-01T11:04:54;10.30;99.90
28947;DHT22;16052;50.930;5.326;2023-04-01T11:13:53;10.30;99.90
28947;DHT22;16052;50.930;5.326;2023-04-01T11:30:59;10.20;99.90
28947;DHT22;16052;50.930;5.326;2023-04-01T11:36:15;10.10;99.90
28947;DHT22;16052;50.930;5.326;2023-04-01T11:46:39;10.30;99.90
28947;DHT22;16052;50.930;5.326;2023-04-01T11:57:30;10.30;99.90
28947;DHT22;16052;50.930;5.326;2023-04-01T12:19:35;10.50;99.90
28947;DHT22;16052;50.930;5.326;2023-04-01T12:22:23;10.50;99.90
28947;DHT22;16052;50.930;5.326;2023-04-01T12:26:00;10.50;99.90
28947;DHT22;16052;50.930;5.326;2023-04-01T12:42:14;10.50;99.90
28947;DHT22;16052;50.930;5.326;2023-04-01T12:59:58;10.50;99.90
28947;DHT22;16052;50.930;5.326;2023-04-01T13:08:06;10.40;99.90
28947;DHT22;16052;50.930;5.326;2023-04-01T13:10:58;10.40;99.90
28947;DHT22;16052;50.930;5.326;2023-04-01T13:14:28;10.40;99.90
28947;DHT22;16052;50.930;5.326;2023-04-01T13:25:07;10.50;99.90
28947;DHT22;16052;50.930;5.326;2023-04-01T13:27:42;10.30;99.90
28947;DHT22;16052;50.930;5.326;2023-04-01T13:30:25;10.30;99.90
28947;DHT22;16052;50.930;5.326;2023-04-01T13:44:02;10.40;99.90
28947;DHT22;16052;50.930;5.326;2023-04-01T13:46:52;10.30;99.90
28947;DHT22;16052;50.930;5.326;2023-04-01T14:03:30;10.20;99.90
28947;DHT22;16052;50.930;5.326;2023-04-01T14:14:51;10.40;99.90
28947;DHT22;16052;50.930;5.326;2023-04-01T14:17:29;10.30;99.90
28947;DHT22;16052;50.930;5.326;2023-04-01T14:20:33;10.20;99.90
28947;DHT22;16052;50.930;5.326;2023-04-01T14:26:13;10.20;99.90
28947;DHT22;16052;50.930;5.326;2023-04-01T14:29:22;10.20;99.90
28947;DHT22;16052;50.930;5.326;2023-04-01T14:32:12;10.20;99.90
28947;DHT22;16052;50.930;5.326;2023-04-01T14:49:40;10.30;99.90
28947;DHT22;16052;50.930;5.326;2023-04-01T14:52:28;10.40;99.90
28947;DHT22;16052;50.930;5.326;2023-04-01T14:54:56;10.40;99.90
28947;DHT22;16052;50.930;5.326;2023-04-01T14:57:26;10.30;99.90
28947;DHT22;16052;50.930;5.326;2023-04-01T15:00:13;10.30;99.90
28947;DHT22;16052;50.930;5.326;2023-04-01T15:05:31;10.30;99.90
28947;DHT22;16052;50.930;5.326;2023-04-01T15:08:20;10.20;99.90
28947;DHT22;16052;50.930;5.326;2023-04-01T15:13:44;10.40;99.90
28947;DHT22;16052;50.930;5.326;2023-04-01T15:16:21;10.50;99.90
28947;DHT22;16052;50.930;5.326;2023-04-01T15:21:50;10.50;99.90
28947;DHT22;16052;50.930;5.326;2023-04-01T15:24:44;10.40;99.90
28947;DHT22;16052;50.930;5.326;2023-04-01T15:41:15;10.40;99.90
28947;DHT22;16052;50.930;5.326;2023-04-01T15:43:46;10.50;99.90
28947;DHT22;16052;50.930;5.326;2023-04-01T15:46:47;10.60;99.90
28947;DHT22;16052;50.930;5.326;2023-04-01T16:00:30;10.50;99.90
28947;DHT22;16052;50.930;5.326;2023-04-01T16:06:01;10.60;99.90
28947;DHT22;16052;50.930;5.326;2023-04-01T16:11:38;10.60;99.90
28947;DHT22;16052;50.930;5.326;2023-04-01T16:17:30;10.70;99.90
28947;DHT22;16052;50.930;5.326;2023-04-01T16:20:20;10.70;99.90
28947;DHT22;16052;50.930;5.326;2023-04-01T16:25:54;10.60;99.90
28947;DHT22;16052;50.930;5.326;2023-04-01T16:28:57;10.60;99.90
28947;DHT22;16052;50.930;5.326;2023-04-01T16:31:34;10.50;99.90
28947;DHT22;16052;50.930;5.326;2023-04-01T16:34:14;10.50;99.90
28947;DHT22;16052;50.930;5.326;2023-04-01T16:36:46;10.50;99.90
28947;DHT22;16052;50.930;5.326;2023-04-01T16:42:28;10.50;99.90
28947;DHT22;16052;50.930;5.326;2023-04-01T16:53:02;10.20;99.90
28947;DHT22;16052;50.930;5.326;2023-04-01T16:55:52;10.30;99.90
28947;DHT22;16052;50.930;5.326;2023-04-01T17:01:19;10.20;99.90
28947;DHT22;16052;50.930;5.326;2023-04-01T17:03:53;10.20;99.90
28947;DHT22;16052;50.930;5.326;2023-04-01T17:14:38;10.10;99.90
28947;DHT22;16052;50.930;5.326;2023-04-01T17:17:38;10.10;99.90
28947;DHT22;16052;50.930;5.326;2023-04-01T17:20:31;10.10;99.90
28947;DHT22;16052;50.930;5.326;2023-04-01T17:23:04;10.10;99.90
28947;DHT22;16052;50.930;5.326;2023-04-01T17:25:57;9.90;99.90
28947;DHT22;16052;50.930;5.326;2023-04-01T17:31:17;9.80;99.90
28947;DHT22;16052;50.930;5.326;2023-04-01T17:40:59;9.80;99.90
28947;DHT22;16052;50.930;5.326;2023-04-01T17:48:45;9.70;99.90
28947;DHT22;16052;50.930;5.326;2023-04-01T17:56:55;9.70;99.90
28947;DHT22;16052;50.930;5.326;2023-04-01T18:00:14;9.60;99.90
28947;DHT22;16052;50.930;5.326;2023-04-01T18:08:44;9.90;99.90
28947;DHT22;16052;50.930;5.326;2023-04-01T18:14:17;9.90;99.90
28947;DHT22;16052;50.930;5.326;2023-04-01T18:16:51;9.90;99.90
28947;DHT22;16052;50.930;5.326;2023-04-01T18:19:35;9.90;99.90
28947;DHT22;16052;50.930;5.326;2023-04-01T18:27:41;9.80;99.90
28947;DHT22;16052;50.930;5.326;2023-04-01T18:30:21;9.70;99.90
28947;DHT22;16052;50.930;5.326;2023-04-01T18:33:04;9.70;99.90
28947;DHT22;16052;50.930;5.326;2023-04-01T18:35:51;9.70;99.90
28947;DHT22;16052;50.930;5.326;2023-04-01T18:38:30;9.70;99.90
28947;DHT22;16052;50.930;5.326;2023-04-01T18:41:19;9.70;99.90
28947;DHT22;16052;50.930;5.326;2023-04-01T18:51:57;9.70;99.90
28947;DHT22;16052;50.930;5.326;2023-04-01T18:54:31;9.60;99.90
28947;DHT22;16052;50.930;5.326;2023-04-01T18:57:14;9.70;99.90
28947;DHT22;16052;50.930;5.326;2023-04-01T18:59:51;9.70;99.90
28947;DHT22;16052;50.930;5.326;2023-04-01T19:02:32;9.70;99.90
28947;DHT22;16052;50.930;5.326;2023-04-01T19:05:13;9.70;99.90
28947;DHT22;16052;50.930;5.326;2023-04-01T19:07:43;9.70;99.90
28947;DHT22;16052;50.930;5.326;2023-04-01T19:13:11;9.60;99.90
28947;DHT22;16052;50.930;5.326;2023-04-01T19:18:39;9.70;99.90
28947;DHT22;16052;50.930;5.326;2023-04-01T19:21:18;9.70;99.90
28947;DHT22;16052;50.930;5.326;2023-04-01T19:24:16;9.70;99.90
28947;DHT22;16052;50.930;5.326;2023-04-01T19:36:43;9.60;99.90
28947;DHT22;16052;50.930;5.326;2023-04-01T19:41:38;9.60;99.90
28947;DHT22;16052;50.930;5.326;2023-04-01T19:44:29;9.60;99.90
28947;DHT22;16052;50.930;5.326;2023-04-01T19:47:30;9.60;99.90
28947;DHT22;16052;50.930;5.326;2023-04-01T19:50:27;9.50;99.90
28947;DHT22;16052;50.930;5.326;2023-04-01T19:52:50;9.50;99.90
28947;DHT22;16052;50.930;5.326;2023-04-01T19:55:52;9.40;99.90
28947;DHT22;16052;50.930;5.326;2023-04-01T19:58:30;9.50;99.90
28947;DHT22;16052;50.930;5.326;2023-04-01T20:01:00;9.50;99.90
28947;DHT22;16052;50.930;5.326;2023-04-01T20:11:55;9.50;99.90
28947;DHT22;16052;50.930;5.326;2023-04-01T20:14:46;9.50;99.90
28947;DHT22;16052;50.930;5.326;2023-04-01T20:17:41;9.50;99.90
28947;DHT22;16052;50.930;5.326;2023-04-01T20:25:22;9.50;99.90
28947;DHT22;16052;50.930;5.326;2023-04-01T20:28:32;9.60;99.90
28947;DHT22;16052;50.930;5.326;2023-04-01T20:31:15;9.60;99.90
28947;DHT22;16052;50.930;5.326;2023-04-01T20:45:14;10.10;99.90
28947;DHT22;16052;50.930;5.326;2023-04-01T20:48:00;10.20;99.90
28947;DHT22;16052;50.930;5.326;2023-04-01T20:50:50;10.30;99.90
28947;DHT22;16052;50.930;5.326;2023-04-01T21:08:02;10.70;99.90
28947;DHT22;16052;50.930;5.326;2023-04-01T21:10:56;10.90;99.90
28947;DHT22;16052;50.930;5.326;2023-04-01T21:19:01;11.00;99.90
28947;DHT22;16052;50.930;5.326;2023-04-01T21:21:40;11.20;99.90
28947;DHT22;16052;50.930;5.326;2023-04-01T21:27:03;11.10;99.90
28947;DHT22;16052;50.930;5.326;2023-04-01T21:32:50;10.90;99.90
28947;DHT22;16052;50.930;5.326;2023-04-01T21:35:33;11.00;99.90
28947;DHT22;16052;50.930;5.326;2023-04-01T21:38:26;11.00;99.90
28947;DHT22;16052;50.930;5.326;2023-04-01T21:41:18;11.00;99.90
28947;DHT22;16052;50.930;5.326;2023-04-01T21:49:43;11.20;99.90
28947;DHT22;16052;50.930;5.326;2023-04-01T22:05:42;10.90;99.90
28947;DHT22;16052;50.930;5.326;2023-04-01T22:08:32;10.90;99.90
28947;DHT22;16052;50.930;5.326;2023-04-01T22:14:25;10.90;99.90
28947;DHT22;16052;50.930;5.326;2023-04-01T22:17:00;11.00;99.90
28947;DHT22;16052;50.930;5.326;2023-04-01T22:19:59;11.00;99.90
28947;DHT22;16052;50.930;5.326;2023-04-01T22:25:25;11.00;99.90
28947;DHT22;16052;50.930;5.326;2023-04-01T22:27:59;10.90;99.90
28947;DHT22;16052;50.930;5.326;2023-04-01T22:33:59;11.00;99.90
28947;DHT22;16052;50.930;5.326;2023-04-01T22:36:38;10.90;99.90
28947;DHT22;16052;50.930;5.326;2023-04-01T22:47:33;11.20;99.90
28947;DHT22;16052;50.930;5.326;2023-04-01T22:50:20;11.00;99.90
28947;DHT22;16052;50.930;5.326;2023-04-01T22:52:53;10.70;99.90
28947;DHT22;16052;50.930;5.326;2023-04-01T22:55:38;10.70;99.90
28947;DHT22;16052;50.930;5.326;2023-04-01T22:58:20;10.70;99.90
28947;DHT22;16052;50.930;5.326;2023-04-01T23:00:54;10.80;99.90
28947;DHT22;16052;50.930;5.326;2023-04-01T23:03:33;11.00;99.90
28947;DHT22;16052;50.930;5.326;2023-04-01T23:06:02;10.90;99.90
28947;DHT22;16052;50.930;5.326;2023-04-01T23:11:10;10.80;99.90
28947;DHT22;16052;50.930;5.326;2023-04-01T23:13:54;10.60;99.90
28947;DHT22;16052;50.930;5.326;2023-04-01T23:16:37;10.40;99.90
28947;DHT22;16052;50.930;5.326;2023-04-01T23:24:35;10.40;99.90
28947;DHT22;16052;50.930;5.326;2023-04-01T23:27:12;10.30;99.90
28947;DHT22;16052;50.930;5.326;2023-04-01T23:29:40;10.30;99.90
28947;DHT22;16052;50.930;5.326;2023-04-01T23:32:16;10.30;99.90
28947;DHT22;16052;50.930;5.326;2023-04-01T23:34:47;10.40;99.90
28947;DHT22;16052;50.930;5.326;2023-04-01T23:37:14;10.40;99.90
28947;DHT22;16052;50.930;5.326;2023-04-01T23:39:45;10.50;99.90
28947;DHT22;16052;50.930;5.326;2023-04-01T23:42:26;10.70;99.90
28947;DHT22;16052;50.930;5.326;2023-04-01T23:44:55;10.50;99.90
28947;DHT22;16052;50.930;5.326;2023-04-01T23:47:29;10.50;99.90
28947;DHT22;16052;50.930;5.326;2023-04-01T23:52:42;10.30;99.90
28947;DHT22;16052;50.930;5.326;2023-04-01T23:55:25;10.40;99.90
